Terminal Aerodrome Forecast
Issued by NWS Boston, MA

Home | Current Version | Previous Version | Text Only | Print | Product List | Glossary Off
Versions: 1 2 3 4 5 6 7 8 9 10 11 12 13 14 15 16 17 18 19 20 21 22 23 24 25
000 FTUS41 KBOX 211353 AAA TAFBOS TAF AMD KBOS 211353Z 2114/2218 24011KT P6SM BKN040 FM211800 26007KT P6SM BKN040 FM212100 26006KT P6SM SCT090 FM221100 36004KT P6SM BKN250 FM221500 04004KT P6SM OVC025=

USA.gov is the U.S. government's official web portal to all federal, state and local government web resources and services.